createdAt,value
2022-08-17T00:02:01.456Z,99615.69
2022-08-17T00:07:10.973Z,99610.59
2022-08-17T00:12:43.259Z,99628.78
2022-08-17T00:17:34.408Z,99615.25
2022-08-17T00:22:46.653Z,99611.44
2022-08-17T00:27:48.330Z,99612.28
2022-08-17T00:33:14.482Z,99618.22
2022-08-17T00:38:12.409Z,99613.56
2022-08-17T00:43:20.678Z,99620.31
2022-08-17T00:48:29.340Z,99614.84
2022-08-17T00:53:36.463Z,99621.19
2022-08-17T00:58:38.620Z,99616.53
2022-08-17T01:03:41.902Z,99611.88
2022-08-17T01:08:43.594Z,99617.97
2022-08-17T01:13:45.646Z,99617.78
2022-08-17T01:18:49.399Z,99619.88
2022-08-17T01:23:51.023Z,99605.50
2022-08-17T01:28:55.783Z,99611.66
2022-08-17T01:34:05.959Z,99603.81
2022-08-17T01:39:16.186Z,99603.38
2022-08-17T01:44:18.033Z,99611.41
2022-08-17T01:49:19.732Z,99603.63
2022-08-17T01:54:22.258Z,99609.72
2022-08-17T01:59:23.989Z,99615.22
2022-08-17T02:04:25.573Z,99610.97
2022-08-17T02:09:29.713Z,99604.22
2022-08-17T02:14:31.744Z,99604.59
2022-08-17T02:19:33.356Z,99600.78
2022-08-17T02:25:00.095Z,99593.53
2022-08-17T02:30:00.252Z,99598.19
2022-08-17T02:35:01.885Z,99590.59
2022-08-17T02:40:04.548Z,99586.75
2022-08-17T02:45:11.201Z,99590.94
2022-08-17T02:50:15.553Z,99590.94
2022-08-17T02:55:19.258Z,99598.34
2022-08-17T03:00:28.829Z,99601.72
2022-08-17T03:05:32.732Z,99610.38
2022-08-17T03:10:34.550Z,99600.22
2022-08-17T03:15:36.293Z,99607.81
2022-08-17T03:20:42.297Z,99616.03
2022-08-17T03:25:46.044Z,99612.00
2022-08-17T03:30:47.676Z,99618.31
2022-08-17T03:35:49.392Z,99624.00
2022-08-17T03:40:58.845Z,99621.66
2022-08-17T03:46:34.138Z,99626.94
2022-08-17T03:51:54.826Z,99627.53
2022-08-17T03:57:10.871Z,99641.50
2022-08-17T04:02:30.233Z,99631.78
2022-08-17T04:07:32.087Z,99640.69
2022-08-17T04:12:49.602Z,99641.78
2022-08-17T04:17:52.376Z,99651.47
2022-08-17T04:22:59.396Z,99659.13
2022-08-17T04:28:01.995Z,99660.66
2022-08-17T04:33:09.799Z,99663.69
2022-08-17T04:38:14.934Z,99670.03
2022-08-17T04:43:19.631Z,99671.81
2022-08-17T04:48:21.351Z,99664.88
2022-08-17T04:53:22.971Z,99672.53
2022-08-17T04:58:25.029Z,99671.28
2022-08-17T05:03:26.695Z,99668.53
2022-08-17T05:08:28.295Z,99669.44
2022-08-17T05:13:30.238Z,99673.25
2022-08-17T05:18:32.894Z,99679.63
2022-08-17T05:23:43.049Z,99677.91
2022-08-17T05:28:45.456Z,99668.19
2022-08-17T05:33:47.796Z,99670.44
2022-08-17T05:38:50.644Z,99675.69
2022-08-17T05:43:56.260Z,99672.06
2022-08-17T05:49:03.459Z,99665.94
2022-08-17T05:54:42.081Z,99667.94
2022-08-17T06:00:20.968Z,99677.13
2022-08-17T06:05:37.039Z,99678.03
2022-08-17T06:10:59.622Z,99682.38
2022-08-17T06:16:28.172Z,99692.06
2022-08-17T06:21:39.601Z,99691.25
2022-08-17T06:26:44.287Z,99704.97
2022-08-17T06:31:46.218Z,99700.59
2022-08-17T06:36:56.629Z,99715.00
2022-08-17T06:42:10.246Z,99697.28
2022-08-17T06:47:49.558Z,99706.00
2022-08-17T06:52:59.882Z,99704.91
2022-08-17T06:58:16.366Z,99714.50
2022-08-17T07:03:24.525Z,99712.88
2022-08-17T07:08:47.581Z,99718.94
2022-08-17T07:14:25.003Z,99716.47
2022-08-17T07:19:32.107Z,99725.75
2022-08-17T07:25:02.592Z,99719.00
2022-08-17T07:30:26.571Z,99731.16
2022-08-17T07:35:40.791Z,99731.66
2022-08-17T07:41:03.136Z,99728.16
2022-08-17T07:46:31.142Z,99729.03
2022-08-17T07:51:36.445Z,99735.38
2022-08-17T07:56:49.167Z,99739.16
2022-08-17T08:01:57.714Z,99736.13
2022-08-17T08:07:01.859Z,99740.97
2022-08-17T08:12:22.004Z,99740.91
2022-08-17T08:17:30.694Z,99739.69
2022-08-17T08:22:47.729Z,99731.06
2022-08-17T08:28:27.971Z,99742.47
2022-08-17T08:33:56.404Z,99731.50
2022-08-17T08:39:13.056Z,99735.63
2022-08-17T08:45:00.616Z,99737.53
2022-08-17T08:50:03.955Z,99734.75
2022-08-17T08:55:07.786Z,99735.56
2022-08-17T09:00:16.753Z,99725.78
2022-08-17T09:05:56.393Z,99727.59
2022-08-17T09:12:01.382Z,99731.97
2022-08-17T09:17:14.955Z,99728.34
2022-08-17T09:22:33.181Z,99734.66
2022-08-17T09:28:00.486Z,99741.41
2022-08-17T09:33:08.061Z,99728.78
2022-08-17T09:38:31.871Z,99721.91
2022-08-17T09:43:55.175Z,99724.75
2022-08-17T09:49:03.454Z,99726.88
2022-08-17T09:54:37.638Z,99730.25
2022-08-17T09:59:54.921Z,99732.88
2022-08-17T10:05:38.075Z,99719.53
2022-08-17T10:10:56.439Z,99730.88
2022-08-17T10:16:11.564Z,99724.47
2022-08-17T10:21:37.583Z,99730.16
2022-08-17T10:26:56.178Z,99725.16
2022-08-17T10:32:05.098Z,99727.09
2022-08-17T10:37:26.332Z,99718.78
2022-08-17T10:42:50.561Z,99729.44
2022-08-17T10:47:55.721Z,99716.69
2022-08-17T10:52:59.940Z,99730.16
2022-08-17T10:58:21.934Z,99723.16
2022-08-17T11:03:25.659Z,99730.72
2022-08-17T11:08:39.374Z,99735.25
2022-08-17T11:13:51.738Z,99733.88
2022-08-17T11:19:15.142Z,99719.31
2022-08-17T11:24:21.224Z,99718.97
2022-08-17T11:29:27.632Z,99709.34
2022-08-17T11:34:32.634Z,99707.75
2022-08-17T11:39:53.092Z,99706.22
2022-08-17T11:45:09.992Z,99701.97
2022-08-17T11:50:49.998Z,99697.25
2022-08-17T11:55:51.705Z,99686.41
2022-08-17T12:01:00.930Z,99688.09
2022-08-17T12:06:30.727Z,99694.84
2022-08-17T12:12:11.265Z,99679.19
2022-08-17T12:17:14.161Z,99685.34
2022-08-17T12:22:38.730Z,99683.50
2022-08-17T12:28:05.136Z,99678.22
2022-08-17T12:33:13.786Z,99668.22
2022-08-17T12:38:34.762Z,99677.13
2022-08-17T12:43:36.492Z,99675.66
2022-08-17T12:48:38.112Z,99681.00
2022-08-17T12:53:45.578Z,99675.41
2022-08-17T12:58:56.893Z,99676.84
2022-08-17T13:04:00.236Z,99666.00
2022-08-17T13:09:13.797Z,99667.97
2022-08-17T13:14:18.511Z,99667.31
2022-08-17T13:19:40.433Z,99666.03
2022-08-17T13:24:58.601Z,99655.31
2022-08-17T13:30:02.305Z,99660.31
2022-08-17T13:35:39.918Z,99652.00
2022-08-17T13:40:44.217Z,99658.09
2022-08-17T13:45:50.738Z,99656.38
2022-08-17T13:50:56.886Z,99661.38
2022-08-17T13:56:37.932Z,99658.31
2022-08-17T14:01:52.574Z,99654.81
2022-08-17T14:06:57.833Z,99656.16
2022-08-17T14:12:00.280Z,99645.25
2022-08-17T14:17:02.093Z,99654.53
2022-08-17T14:22:08.854Z,99651.78
2022-08-17T14:27:10.358Z,99644.56
2022-08-17T14:32:19.320Z,99636.75
2022-08-17T14:37:21.627Z,99640.69
2022-08-17T14:42:25.269Z,99640.13
2022-08-17T14:47:26.762Z,99640.13
2022-08-17T14:52:28.864Z,99634.00
2022-08-17T14:57:34.155Z,99632.31
2022-08-17T15:02:55.625Z,99633.72
2022-08-17T15:07:58.145Z,99638.97
2022-08-17T15:13:00.431Z,99647.28
2022-08-17T15:18:02.579Z,99643.44
2022-08-17T15:23:04.419Z,99645.97
2022-08-17T15:28:06.394Z,99635.03
2022-08-17T15:33:07.882Z,99637.25
2022-08-17T15:38:11.961Z,99639.97
2022-08-17T15:43:32.639Z,99625.66
2022-08-17T15:48:41.720Z,99640.31
2022-08-17T15:53:46.228Z,99643.16
2022-08-17T15:58:49.093Z,99657.03
2022-08-17T16:04:04.347Z,99648.13
2022-08-17T16:09:06.866Z,99646.34
2022-08-17T16:14:08.323Z,99651.75
2022-08-17T16:19:09.794Z,99643.53
2022-08-17T16:24:12.867Z,99647.66
2022-08-17T16:29:15.274Z,99651.72
2022-08-17T16:34:18.898Z,99652.25
2022-08-17T16:39:20.408Z,99657.00
2022-08-17T16:44:22.022Z,99657.78
2022-08-17T16:49:35.968Z,99656.38
2022-08-17T16:54:43.299Z,99649.13
2022-08-17T16:59:48.114Z,99645.22
2022-08-17T17:04:56.039Z,99653.31
2022-08-17T17:09:57.500Z,99650.81
2022-08-17T17:15:02.213Z,99650.19
2022-08-17T17:20:12.466Z,99646.72
2022-08-17T17:25:23.865Z,99650.94
2022-08-17T17:30:33.095Z,99653.56
2022-08-17T17:36:01.858Z,99650.06
2022-08-17T17:41:08.587Z,99648.75
2022-08-17T17:46:29.156Z,99641.88
2022-08-17T17:52:11.032Z,99640.22
2022-08-17T17:58:05.834Z,99647.47
2022-08-17T18:03:51.575Z,99654.72
2022-08-17T18:08:58.953Z,99659.72
2022-08-17T18:14:17.225Z,99656.47
2022-08-17T18:19:24.972Z,99648.28
2022-08-17T18:24:33.417Z,99646.75
2022-08-17T18:29:44.245Z,99657.91
2022-08-17T18:34:48.823Z,99659.81
2022-08-17T18:39:50.503Z,99672.88
2022-08-17T18:44:55.338Z,99666.41
2022-08-17T18:50:18.632Z,99668.38
2022-08-17T18:55:23.114Z,99668.25
2022-08-17T19:00:30.594Z,99668.66
2022-08-17T19:05:37.996Z,99672.84
2022-08-17T19:10:46.776Z,99671.06
2022-08-17T19:16:05.298Z,99679.97
2022-08-17T19:21:22.824Z,99681.78
2022-08-17T19:26:55.163Z,99695.78
2022-08-17T19:31:55.126Z,99689.84
2022-08-17T19:37:02.500Z,99684.06
2022-08-17T19:42:12.820Z,99695.03
2022-08-17T19:47:50.973Z,99697.06
2022-08-17T19:53:09.736Z,99690.91
2022-08-17T19:58:24.801Z,99713.41
2022-08-17T20:03:29.873Z,99715.19
2022-08-17T20:09:15.251Z,99700.38
2022-08-17T20:14:53.535Z,99701.69
2022-08-17T20:20:24.029Z,99697.94
2022-08-17T20:25:31.552Z,99690.00
2022-08-17T20:30:41.002Z,99696.13
2022-08-17T20:35:59.847Z,99681.50
2022-08-17T20:41:04.304Z,99678.00
2022-08-17T20:46:28.472Z,99670.00
2022-08-17T20:51:34.786Z,99680.94
2022-08-17T20:56:57.872Z,99692.06
2022-08-17T21:02:08.971Z,99670.28
2022-08-17T21:07:42.550Z,99680.59
2022-08-17T21:12:55.914Z,99668.78
2022-08-17T21:18:16.496Z,99669.88
2022-08-17T21:23:52.136Z,99684.00
2022-08-17T21:29:32.046Z,99676.25
2022-08-17T21:34:39.197Z,99674.25
2022-08-17T21:39:41.716Z,99678.16
2022-08-17T21:44:49.382Z,99672.00
2022-08-17T21:49:52.681Z,99694.88
2022-08-17T21:54:58.699Z,99698.84
2022-08-17T22:00:02.762Z,99685.09
2022-08-17T22:05:11.125Z,99684.47
2022-08-17T22:10:27.818Z,99684.88
2022-08-17T22:15:29.528Z,99693.16
2022-08-17T22:20:31.380Z,99690.84
2022-08-17T22:25:36.600Z,99702.97
2022-08-17T22:30:42.917Z,99707.03
2022-08-17T22:35:45.544Z,99712.38
2022-08-17T22:40:53.930Z,99716.03
2022-08-17T22:45:57.323Z,99709.06
2022-08-17T22:51:13.839Z,99715.72
2022-08-17T22:56:37.564Z,99728.91
2022-08-17T23:01:40.695Z,99728.13
2022-08-17T23:06:42.616Z,99731.16
2022-08-17T23:11:48.934Z,99726.97
2022-08-17T23:16:51.298Z,99726.38
2022-08-17T23:21:55.368Z,99727.84
2022-08-17T23:26:58.184Z,99731.03
2022-08-17T23:32:01.406Z,99734.69
2022-08-17T23:37:04.446Z,99724.53
2022-08-17T23:42:09.333Z,99740.31
2022-08-17T23:47:11.305Z,99737.78
2022-08-17T23:52:15.307Z,99726.56
2022-08-17T23:57:33.089Z,99726.16
